Time;durP1;ratioP1;P1;durP2;ratioP2;P2;SDS_P1;SDS_P2;PMS_P1;PMS_P2;Temp;Humidity;BMP_temperature;BMP_pressure;BME280_temperature;BME280_humidity;BME280_pressure;Samples;Min_cycle;Max_cycle;Signal;HPM_P1;HPM_P2
2021/08/19 00:01:21;;;;;;;4.55;2.08;;;16.70;99.90;;;;;;5010270;28;20034;-69
2021/08/19 00:03:48;;;;;;;2.75;1.70;;;16.70;99.90;;;;;;5024791;28;20046;-69
2021/08/19 00:06:15;;;;;;;4.22;2.03;;;16.70;99.90;;;;;;5002490;28;20049;-69
2021/08/19 00:08:43;;;;;;;3.33;1.90;;;16.70;99.90;;;;;;5003177;28;20432;-69
2021/08/19 00:11:12;;;;;;;3.72;1.70;;;16.70;99.90;;;;;;5034195;28;20049;-69
2021/08/19 00:13:40;;;;;;;3.83;2.00;;;16.60;99.90;;;;;;4991789;28;20129;-69
2021/08/19 00:16:08;;;;;;;3.25;2.05;;;16.70;99.90;;;;;;5009677;28;20050;-68
2021/08/19 00:18:36;;;;;;;3.40;2.10;;;16.70;99.90;;;;;;4991508;28;20093;-69
2021/08/19 00:21:05;;;;;;;3.65;2.10;;;16.60;99.90;;;;;;5006858;28;20045;-69
2021/08/19 00:23:35;;;;;;;3.83;2.20;;;16.60;99.90;;;;;;5040617;28;20045;-69
2021/08/19 00:26:04;;;;;;;3.65;2.10;;;16.60;99.90;;;;;;5008359;28;20108;-69
2021/08/19 00:28:32;;;;;;;5.53;2.13;;;16.60;99.90;;;;;;5009811;28;20073;-69
2021/08/19 00:31:00;;;;;;;3.97;2.10;;;16.60;99.90;;;;;;5016457;28;20049;-69
2021/08/19 00:33:28;;;;;;;4.45;2.05;;;16.60;99.90;;;;;;4992297;28;20105;-69
2021/08/19 00:35:56;;;;;;;5.40;2.10;;;16.60;99.90;;;;;;5007451;28;20077;-69
2021/08/19 00:38:23;;;;;;;3.55;1.70;;;16.60;99.90;;;;;;5002466;28;20137;-69
2021/08/19 00:40:51;;;;;;;5.05;2.17;;;16.60;99.90;;;;;;5014282;28;20044;-69
2021/08/19 00:43:21;;;;;;;4.28;2.20;;;16.50;99.90;;;;;;5001172;28;20382;-69
2021/08/19 00:45:48;;;;;;;3.15;1.95;;;16.50;99.90;;;;;;5008267;28;20052;-69
2021/08/19 00:48:16;;;;;;;5.40;2.40;;;16.50;99.90;;;;;;5010366;28;20069;-69
2021/08/19 00:50:44;;;;;;;4.80;1.92;;;16.50;99.90;;;;;;5018370;28;20051;-69
2021/08/19 00:53:12;;;;;;;4.10;2.28;;;16.50;99.90;;;;;;5000192;28;20125;-69
2021/08/19 00:55:40;;;;;;;8.30;2.08;;;16.50;99.90;;;;;;5012463;28;20122;-69
2021/08/19 00:58:08;;;;;;;3.78;2.33;;;16.50;99.90;;;;;;4998619;28;20038;-69
2021/08/19 01:00:36;;;;;;;4.35;2.33;;;16.50;99.90;;;;;;5013717;28;20046;-69
2021/08/19 01:03:03;;;;;;;3.28;2.00;;;16.50;99.90;;;;;;4999996;28;20140;-69
2021/08/19 01:05:31;;;;;;;4.32;2.22;;;16.50;99.90;;;;;;5012276;28;20415;-69
2021/08/19 01:08:01;;;;;;;3.40;2.20;;;16.40;99.90;;;;;;5011854;28;20045;-69
2021/08/19 01:10:29;;;;;;;4.88;2.38;;;16.40;99.90;;;;;;5012611;28;20046;-69
2021/08/19 01:12:57;;;;;;;3.75;2.20;;;16.50;99.90;;;;;;5012940;28;20050;-69
2021/08/19 01:15:25;;;;;;;3.78;2.47;;;16.50;99.90;;;;;;5011769;28;20050;-69
2021/08/19 01:17:57;;;;;;;3.17;2.13;;;16.50;99.90;;;;;;5001386;28;20043;-69
2021/08/19 01:20:29;;;;;;;4.70;2.15;;;16.60;99.90;;;;;;5022915;28;20042;-69
2021/08/19 01:22:58;;;;;;;5.57;2.40;;;16.40;99.90;;;;;;5004925;28;20489;-69
2021/08/19 01:25:26;;;;;;;4.15;2.50;;;16.40;99.90;;;;;;5012588;28;20450;-69
2021/08/19 01:27:55;;;;;;;4.80;2.50;;;16.40;99.90;;;;;;4985749;28;20045;-69
2021/08/19 01:30:25;;;;;;;3.88;2.20;;;16.40;99.90;;;;;;5041028;28;20052;-69
2021/08/19 01:32:52;;;;;;;4.18;2.80;;;16.40;99.90;;;;;;5027895;28;20128;-69
2021/08/19 01:35:28;;;;;;;3.75;2.35;;;16.40;99.90;;;;;;4999121;28;20498;-69
2021/08/19 01:37:55;;;;;;;4.05;2.40;;;16.40;99.90;;;;;;5011650;28;20065;-69
2021/08/19 01:40:22;;;;;;;3.47;2.35;;;16.40;99.90;;;;;;5017171;28;20068;-69
2021/08/19 01:42:49;;;;;;;5.72;2.50;;;16.40;99.90;;;;;;5011041;28;20045;-69
2021/08/19 01:45:18;;;;;;;6.80;2.50;;;16.30;99.90;;;;;;5003944;28;20057;-69
2021/08/19 01:47:46;;;;;;;4.75;2.33;;;16.30;99.90;;;;;;5010589;28;20432;-69
2021/08/19 01:50:14;;;;;;;4.70;2.42;;;16.30;99.90;;;;;;5022904;28;20129;-69
2021/08/19 01:52:42;;;;;;;5.45;2.50;;;16.30;99.90;;;;;;5009982;28;20045;-69
2021/08/19 01:55:10;;;;;;;5.10;2.40;;;16.40;99.90;;;;;;5006706;28;20038;-69
2021/08/19 01:57:37;;;;;;;5.47;2.60;;;16.40;99.90;;;;;;5003783;28;20752;-69
2021/08/19 02:00:05;;;;;;;4.05;2.40;;;16.40;99.90;;;;;;5025034;28;20056;-69
2021/08/19 02:02:35;;;;;;;5.78;2.80;;;16.30;99.90;;;;;;5011397;28;20104;-69
2021/08/19 02:05:03;;;;;;;5.00;2.53;;;16.30;99.90;;;;;;5012191;28;20649;-69
2021/08/19 02:07:30;;;;;;;4.22;2.53;;;16.30;99.90;;;;;;5010877;28;20104;-68
2021/08/19 02:09:57;;;;;;;4.32;2.28;;;16.30;99.90;;;;;;5027143;28;20050;-69
2021/08/19 02:12:25;;;;;;;4.20;2.92;;;16.30;99.90;;;;;;5011153;28;20057;-69
2021/08/19 02:14:52;;;;;;;5.20;2.70;;;16.30;99.90;;;;;;5010447;28;20046;-69
2021/08/19 02:17:19;;;;;;;4.25;2.67;;;16.30;99.90;;;;;;5010672;28;20038;-69
2021/08/19 02:19:46;;;;;;;3.60;2.40;;;16.30;99.90;;;;;;5011712;28;20412;-69
2021/08/19 02:22:14;;;;;;;4.07;2.70;;;16.30;99.90;;;;;;4994352;28;20060;-69
2021/08/19 02:24:42;;;;;;;6.13;2.80;;;16.30;99.90;;;;;;5012212;28;20470;-69
2021/08/19 02:27:09;;;;;;;3.92;2.45;;;16.30;99.90;;;;;;5012050;28;20209;-69
2021/08/19 02:29:36;;;;;;;5.05;2.53;;;16.20;99.90;;;;;;5011857;28;20048;-69
2021/08/19 02:32:04;;;;;;;3.58;2.42;;;16.20;99.90;;;;;;4997865;28;20088;-69
2021/08/19 02:34:31;;;;;;;4.72;2.67;;;16.30;99.90;;;;;;4998679;28;20045;-69
2021/08/19 02:36:58;;;;;;;5.13;2.40;;;16.30;99.90;;;;;;5000922;28;20049;-69
2021/08/19 02:39:26;;;;;;;4.05;2.47;;;16.30;99.90;;;;;;5026447;28;20045;-69
2021/08/19 02:41:53;;;;;;;6.57;3.00;;;16.20;99.90;;;;;;5009284;28;20462;-69
2021/08/19 02:44:20;;;;;;;4.18;2.47;;;16.20;99.90;;;;;;5031963;28;20412;-69
2021/08/19 02:46:48;;;;;;;4.90;2.40;;;16.20;99.90;;;;;;5010384;28;20127;-70
2021/08/19 02:49:15;;;;;;;3.42;2.30;;;16.20;99.90;;;;;;5009372;28;20052;-69
2021/08/19 02:51:42;;;;;;;4.60;2.90;;;16.20;99.90;;;;;;5011815;28;20703;-69
2021/08/19 02:54:09;;;;;;;5.63;2.67;;;16.20;99.90;;;;;;5010263;28;20365;-69
2021/08/19 02:56:38;;;;;;;5.60;2.67;;;16.20;99.90;;;;;;5010032;28;20042;-69
2021/08/19 02:59:07;;;;;;;4.10;2.45;;;16.20;99.90;;;;;;5041242;28;20104;-69
2021/08/19 03:01:34;;;;;;;4.30;2.50;;;16.20;99.90;;;;;;5009717;28;20137;-69
2021/08/19 03:04:02;;;;;;;4.47;2.85;;;16.20;99.90;;;;;;5010355;28;20046;-69
2021/08/19 03:06:29;;;;;;;4.15;2.58;;;16.20;99.90;;;;;;5024089;28;20054;-69
2021/08/19 03:08:56;;;;;;;5.13;2.70;;;16.20;99.90;;;;;;5010597;28;20045;-69
2021/08/19 03:11:24;;;;;;;6.05;2.80;;;16.10;99.90;;;;;;5015030;28;20061;-69
2021/08/19 03:13:53;;;;;;;4.50;2.58;;;16.10;99.90;;;;;;5026225;28;20469;-69
2021/08/19 03:16:20;;;;;;;7.53;2.90;;;16.20;99.90;;;;;;5025261;28;20129;-68
2021/08/19 03:18:48;;;;;;;5.68;2.75;;;16.20;99.90;;;;;;5021795;28;20039;-69
2021/08/19 03:21:17;;;;;;;5.60;2.45;;;16.10;99.90;;;;;;5026058;28;20524;-69
2021/08/19 03:23:44;;;;;;;4.95;2.72;;;16.10;99.90;;;;;;4984648;28;20327;-69
2021/08/19 03:26:11;;;;;;;4.88;2.75;;;16.10;99.90;;;;;;5024574;28;20066;-69
2021/08/19 03:28:41;;;;;;;4.05;2.50;;;16.20;99.90;;;;;;5025511;28;20145;-69
2021/08/19 03:31:08;;;;;;;4.07;2.53;;;16.20;99.90;;;;;;5009141;28;20507;-69
2021/08/19 03:33:38;;;;;;;5.03;2.85;;;16.20;99.90;;;;;;5008069;28;20042;-69
2021/08/19 03:36:05;;;;;;;6.10;2.88;;;16.20;99.90;;;;;;5002986;28;20041;-69
2021/08/19 03:38:43;;;;;;;5.57;3.00;;;16.20;99.90;;;;;;5009302;28;20044;-69
2021/08/19 03:41:12;;;;;;;4.45;3.05;;;16.20;99.90;;;;;;5013391;28;20064;-68
2021/08/19 03:43:39;;;;;;;4.93;3.33;;;16.10;99.90;;;;;;5010809;28;20049;-68
2021/08/19 03:46:07;;;;;;;4.53;2.78;;;16.20;99.90;;;;;;5024629;28;20045;-69
2021/08/19 03:48:34;;;;;;;5.28;3.13;;;16.10;99.90;;;;;;5009524;28;20042;-69
2021/08/19 03:51:01;;;;;;;4.80;3.05;;;16.10;99.90;;;;;;5010371;28;20140;-69
2021/08/19 03:53:29;;;;;;;5.68;2.88;;;16.10;99.90;;;;;;5009508;28;20096;-69
2021/08/19 03:55:56;;;;;;;5.32;3.30;;;16.10;99.90;;;;;;4989892;28;20517;-69
2021/08/19 03:58:24;;;;;;;6.25;3.80;;;16.10;99.90;;;;;;5007738;28;20496;-69
2021/08/19 04:00:51;;;;;;;6.47;3.60;;;16.10;99.90;;;;;;5008837;28;20046;-69
2021/08/19 04:03:19;;;;;;;5.10;3.42;;;16.20;99.90;;;;;;4989706;28;20477;-69
2021/08/19 04:05:46;;;;;;;5.47;3.13;;;16.20;99.90;;;;;;5024911;28;20488;-69
2021/08/19 04:08:14;;;;;;;5.60;3.00;;;16.10;99.90;;;;;;5009177;28;20489;-69
2021/08/19 04:10:42;;;;;;;7.28;3.90;;;16.10;99.90;;;;;;5009656;28;20042;-69
2021/08/19 04:13:09;;;;;;;6.22;3.75;;;16.10;99.90;;;;;;5010004;28;20131;-69
2021/08/19 04:15:37;;;;;;;7.47;3.95;;;16.10;99.90;;;;;;5007142;28;20034;-69
2021/08/19 04:18:04;;;;;;;5.30;3.85;;;16.10;99.90;;;;;;5009798;28;20050;-69
2021/08/19 04:20:33;;;;;;;8.27;4.50;;;16.00;99.90;;;;;;5007832;28;20527;-69
2021/08/19 04:23:00;;;;;;;7.18;4.53;;;16.00;99.90;;;;;;5001938;28;20054;-68
2021/08/19 04:25:27;;;;;;;6.45;4.47;;;16.00;99.90;;;;;;5009400;28;20038;-68
2021/08/19 04:27:54;;;;;;;6.05;4.13;;;16.00;99.90;;;;;;5004979;28;20432;-69
2021/08/19 04:30:22;;;;;;;7.00;4.68;;;16.10;99.90;;;;;;5010033;28;20080;-68
2021/08/19 04:32:49;;;;;;;6.75;4.50;;;16.00;99.90;;;;;;5007060;28;20050;-68
2021/08/19 04:35:17;;;;;;;6.68;4.47;;;16.10;99.90;;;;;;5000868;28;20069;-69
2021/08/19 04:37:44;;;;;;;7.20;4.60;;;16.00;99.90;;;;;;5024288;28;20038;-69
2021/08/19 04:40:12;;;;;;;7.57;5.25;;;16.10;99.90;;;;;;5010214;28;20062;-68
2021/08/19 04:42:39;;;;;;;8.18;5.63;;;16.10;99.90;;;;;;4997356;28;20046;-68
2021/08/19 04:45:08;;;;;;;8.63;5.28;;;16.10;99.90;;;;;;5008193;28;20052;-68
2021/08/19 04:47:36;;;;;;;6.25;4.65;;;16.00;99.90;;;;;;5010101;28;20172;-68
2021/08/19 04:50:03;;;;;;;8.20;5.95;;;16.10;99.90;;;;;;5000343;28;20512;-68
2021/08/19 04:52:31;;;;;;;6.80;5.63;;;16.10;99.90;;;;;;5034741;28;20469;-68
2021/08/19 04:54:58;;;;;;;8.23;5.90;;;16.10;99.90;;;;;;5002470;28;20050;-69
2021/08/19 04:57:25;;;;;;;6.97;5.30;;;16.10;99.90;;;;;;5001832;28;20124;-68
2021/08/19 04:59:53;;;;;;;9.32;5.85;;;16.10;99.90;;;;;;5009254;28;20178;-68
2021/08/19 05:02:20;;;;;;;8.10;6.38;;;16.10;99.90;;;;;;4999834;28;20046;-68
2021/08/19 05:04:47;;;;;;;7.75;6.07;;;16.20;99.90;;;;;;5015071;28;20092;-68
2021/08/19 05:07:15;;;;;;;8.80;5.95;;;16.20;99.90;;;;;;5008268;28;20060;-70
2021/08/19 05:09:42;;;;;;;8.85;6.15;;;16.20;99.90;;;;;;5009751;28;20057;-69
2021/08/19 05:12:09;;;;;;;8.10;6.70;;;16.20;99.90;;;;;;5008222;28;20046;-69
2021/08/19 05:14:38;;;;;;;9.18;6.47;;;16.30;99.90;;;;;;5008015;28;20492;-69
2021/08/19 05:17:08;;;;;;;10.40;7.00;;;16.30;99.90;;;;;;4997217;28;20815;-70
2021/08/19 05:19:35;;;;;;;7.82;6.10;;;16.30;99.90;;;;;;5009990;28;20347;-69
2021/08/19 05:22:03;;;;;;;7.95;6.22;;;16.30;99.90;;;;;;4991951;28;20140;-69
2021/08/19 05:24:30;;;;;;;8.23;6.35;;;16.30;99.90;;;;;;5008454;28;20419;-69
2021/08/19 05:26:57;;;;;;;8.35;5.93;;;16.30;99.90;;;;;;5007789;28;20141;-69
2021/08/19 05:29:24;;;;;;;9.05;6.00;;;16.40;99.90;;;;;;5009166;28;20052;-69
2021/08/19 05:31:52;;;;;;;8.73;6.05;;;16.40;99.90;;;;;;5009522;28;20050;-69
2021/08/19 05:34:19;;;;;;;8.00;6.65;;;16.50;99.90;;;;;;5010494;28;20042;-69
2021/08/19 05:36:46;;;;;;;7.15;5.90;;;16.50;99.90;;;;;;5012856;28;20042;-69
2021/08/19 05:39:13;;;;;;;8.60;6.10;;;16.50;99.90;;;;;;4992373;28;20046;-69
2021/08/19 05:41:41;;;;;;;9.80;6.43;;;16.50;99.90;;;;;;5050476;28;20042;-70
2021/08/19 05:44:09;;;;;;;10.57;6.68;;;16.50;99.90;;;;;;5027531;28;20065;-69
2021/08/19 05:46:38;;;;;;;7.13;6.10;;;16.50;99.90;;;;;;5013029;28;20598;-69
2021/08/19 05:49:07;;;;;;;7.53;5.70;;;16.50;99.90;;;;;;5011387;28;20402;-70
2021/08/19 05:51:34;;;;;;;8.77;5.60;;;16.60;99.90;;;;;;5012398;28;20042;-69
2021/08/19 05:54:02;;;;;;;6.93;5.47;;;16.60;99.90;;;;;;4997257;28;20081;-69
2021/08/19 05:56:30;;;;;;;9.13;6.72;;;16.70;99.90;;;;;;4997123;28;20058;-69
2021/08/19 05:58:57;;;;;;;7.28;5.70;;;16.70;99.90;;;;;;4999860;28;20038;-69
2021/08/19 06:01:24;;;;;;;8.85;6.30;;;16.60;99.90;;;;;;5008514;28;20046;-69
2021/08/19 06:03:52;;;;;;;7.43;5.95;;;16.70;99.90;;;;;;5031344;28;20124;-69
2021/08/19 06:06:19;;;;;;;10.15;5.90;;;16.70;99.90;;;;;;5033182;28;20061;-69
2021/08/19 06:08:47;;;;;;;6.82;5.32;;;16.70;99.90;;;;;;5023448;28;20046;-69
2021/08/19 06:11:14;;;;;;;8.05;5.03;;;16.80;99.90;;;;;;5021307;28;20053;-69
2021/08/19 06:13:41;;;;;;;7.47;5.75;;;16.90;99.90;;;;;;5010568;28;20583;-69
2021/08/19 06:16:08;;;;;;;8.30;5.65;;;16.80;99.90;;;;;;5010181;28;20424;-69
2021/08/19 06:18:36;;;;;;;6.78;5.25;;;16.80;99.90;;;;;;5011966;28;20049;-69
2021/08/19 06:21:03;;;;;;;8.13;5.35;;;16.90;99.90;;;;;;5000732;28;20046;-70
2021/08/19 06:23:30;;;;;;;7.97;5.50;;;16.90;99.90;;;;;;5009710;28;20081;-69
2021/08/19 06:25:58;;;;;;;6.85;4.90;;;17.00;99.90;;;;;;5000014;28;20688;-69
2021/08/19 06:28:25;;;;;;;9.27;4.93;;;17.10;99.90;;;;;;5042033;28;20050;-69
2021/08/19 06:30:54;;;;;;;6.85;5.43;;;17.20;99.90;;;;;;5012327;28;20046;-69
2021/08/19 06:33:21;;;;;;;7.53;5.70;;;17.10;99.90;;;;;;5015813;28;20049;-69
2021/08/19 06:35:48;;;;;;;7.32;4.80;;;17.20;99.90;;;;;;4996331;28;20035;-69
2021/08/19 06:38:16;;;;;;;7.75;5.30;;;17.30;99.90;;;;;;5007086;28;20141;-69
2021/08/19 06:40:44;;;;;;;9.63;5.53;;;17.40;99.90;;;;;;5015859;28;20030;-69
2021/08/19 06:43:11;;;;;;;7.93;5.63;;;17.50;99.90;;;;;;5004805;28;20047;-69
2021/08/19 06:45:38;;;;;;;7.00;4.30;;;17.50;99.90;;;;;;5008501;28;20076;-70
2021/08/19 06:48:05;;;;;;;7.88;5.32;;;17.60;99.90;;;;;;5012130;28;20054;-71
2021/08/19 06:50:33;;;;;;;7.78;5.00;;;17.70;99.90;;;;;;5017618;28;20149;-70
2021/08/19 06:53:00;;;;;;;7.65;4.50;;;17.90;99.90;;;;;;5001840;28;20088;-70
2021/08/19 06:55:32;;;;;;;6.25;4.65;;;18.00;99.90;;;;;;4998945;28;20033;-70
2021/08/19 06:57:59;;;;;;;6.43;4.38;;;18.20;99.90;;;;;;4997959;28;20054;-71
2021/08/19 07:00:26;;;;;;;7.10;4.10;;;18.30;99.90;;;;;;5000644;28;20030;-71
2021/08/19 07:02:54;;;;;;;8.40;4.10;;;18.40;99.90;;;;;;4996953;28;20070;-70
2021/08/19 07:05:22;;;;;;;6.53;4.30;;;18.50;99.90;;;;;;4996533;28;20050;-70
2021/08/19 07:07:50;;;;;;;5.78;4.15;;;18.60;99.90;;;;;;5006572;28;20038;-70
2021/08/19 07:10:17;;;;;;;9.73;4.60;;;18.70;99.90;;;;;;5010548;28;20046;-70
2021/08/19 07:12:45;;;;;;;9.35;4.70;;;18.70;99.90;;;;;;5009123;28;20060;-70
2021/08/19 07:15:12;;;;;;;7.00;4.18;;;18.50;99.90;;;;;;5010521;28;20034;-70
2021/08/19 07:17:40;;;;;;;7.72;4.18;;;18.60;99.90;;;;;;5025848;28;20052;-70
2021/08/19 07:20:08;;;;;;;8.50;4.50;;;18.80;99.90;;;;;;5021488;28;20065;-71
2021/08/19 07:22:35;;;;;;;8.38;3.92;;;18.70;99.90;;;;;;5035711;28;20069;-70
2021/08/19 07:25:05;;;;;;;6.50;4.38;;;18.70;99.90;;;;;;5021185;28;20050;-70
2021/08/19 07:27:32;;;;;;;6.68;3.67;;;18.80;99.90;;;;;;5010483;28;20046;-70
2021/08/19 07:29:59;;;;;;;6.53;4.18;;;19.00;99.90;;;;;;5007474;28;20050;-70
2021/08/19 07:32:27;;;;;;;6.50;4.57;;;19.10;99.90;;;;;;5005423;28;20041;-70
2021/08/19 07:34:54;;;;;;;5.03;3.58;;;19.20;99.90;;;;;;4990424;28;20428;-70
2021/08/19 07:37:21;;;;;;;7.38;4.35;;;19.20;99.90;;;;;;4998799;28;20052;-69
2021/08/19 07:39:48;;;;;;;6.72;4.00;;;19.00;99.90;;;;;;5014145;28;20037;-69
2021/08/19 07:42:16;;;;;;;6.43;4.10;;;19.00;99.90;;;;;;5004848;28;20129;-70
2021/08/19 07:44:43;;;;;;;5.93;4.15;;;19.10;99.90;;;;;;5005625;28;20434;-70
2021/08/19 07:47:10;;;;;;;11.55;4.40;;;19.10;99.90;;;;;;4996002;28;20050;-70
2021/08/19 07:49:38;;;;;;;7.25;4.28;;;19.00;99.90;;;;;;5003280;28;20137;-70
2021/08/19 07:52:05;;;;;;;5.45;3.90;;;18.90;99.90;;;;;;5001095;28;20413;-70
2021/08/19 07:54:33;;;;;;;5.75;4.32;;;19.00;99.90;;;;;;5009083;28;20058;-69
2021/08/19 07:57:00;;;;;;;7.40;4.53;;;19.20;99.90;;;;;;5011392;28;20456;-70
2021/08/19 07:59:27;;;;;;;7.43;3.58;;;19.10;99.90;;;;;;5001788;28;20058;-70
2021/08/19 08:02:10;;;;;;;5.35;3.50;;;19.00;99.90;;;;;;5008522;28;20049;-70
2021/08/19 08:04:38;;;;;;;5.82;3.50;;;19.00;99.90;;;;;;4990419;28;20493;-70
2021/08/19 08:07:05;;;;;;;6.55;3.40;;;19.10;99.90;;;;;;5008209;28;20523;-71
2021/08/19 08:09:33;;;;;;;4.75;2.90;;;19.20;99.90;;;;;;5009181;28;20125;-71
2021/08/19 08:12:00;;;;;;;4.40;2.88;;;19.50;99.90;;;;;;5011931;28;20072;-70
2021/08/19 08:14:28;;;;;;;8.90;3.03;;;19.60;99.90;;;;;;5010981;28;20128;-71
2021/08/19 08:16:56;;;;;;;5.20;3.00;;;19.50;99.90;;;;;;5021638;28;20400;-70
2021/08/19 08:19:23;;;;;;;4.53;3.17;;;19.30;99.90;;;;;;5006608;28;20144;-71
2021/08/19 08:21:51;;;;;;;5.50;3.60;;;19.00;99.90;;;;;;5023596;28;20049;-70
2021/08/19 08:24:18;;;;;;;7.45;3.25;;;18.80;99.90;;;;;;5008077;28;20136;-70
2021/08/19 08:26:45;;;;;;;5.40;3.40;;;18.70;99.90;;;;;;5007272;28;20080;-70
2021/08/19 08:29:13;;;;;;;5.35;2.70;;;18.70;99.90;;;;;;5002462;28;20053;-70
2021/08/19 08:31:40;;;;;;;4.60;2.90;;;18.80;99.90;;;;;;5000572;28;20053;-70
2021/08/19 08:34:08;;;;;;;5.75;3.17;;;18.90;99.90;;;;;;5007101;28;20108;-70
2021/08/19 08:36:35;;;;;;;5.22;2.65;;;19.10;99.90;;;;;;5020420;28;20045;-70
2021/08/19 08:39:05;;;;;;;4.80;2.60;;;19.40;99.90;;;;;;5007645;28;20073;-70
2021/08/19 08:41:33;;;;;;;6.22;2.45;;;19.80;99.90;;;;;;5005599;28;20575;-70
2021/08/19 08:44:00;;;;;;;4.00;2.30;;;20.00;99.90;;;;;;5008707;28;20046;-71
2021/08/19 08:46:28;;;;;;;7.72;2.75;;;20.20;99.90;;;;;;5022869;28;20054;-71
2021/08/19 08:48:56;;;;;;;5.07;2.30;;;20.10;99.90;;;;;;5007133;28;20065;-70
2021/08/19 08:51:25;;;;;;;4.70;2.75;;;20.20;99.90;;;;;;5007454;28;20041;-70
2021/08/19 08:53:53;;;;;;;4.80;2.78;;;20.20;99.90;;;;;;5005798;28;20092;-70
2021/08/19 08:56:24;;;;;;;5.38;3.03;;;20.00;99.90;;;;;;5008492;28;20034;-71
2021/08/19 08:58:52;;;;;;;5.15;2.80;;;19.90;99.90;;;;;;5017427;28;20517;-71
2021/08/19 09:01:19;;;;;;;5.32;2.72;;;19.90;99.90;;;;;;5003942;28;20042;-71
2021/08/19 09:03:48;;;;;;;6.22;3.10;;;19.90;99.90;;;;;;5022401;28;20045;-71
2021/08/19 09:06:36;;;;;;;7.53;2.97;;;20.40;99.90;;;;;;5021663;28;20110;-71
2021/08/19 09:09:19;;;;;;;4.43;2.65;;;20.70;99.90;;;;;;5000388;28;20140;-70
2021/08/19 09:11:52;;;;;;;;;;;20.80;99.90;;;;;;5025656;28;20052;-70
2021/08/19 09:14:21;;;;;;;4.97;2.85;;;20.90;99.90;;;;;;5011216;28;19932;-71
2021/08/19 09:16:49;;;;;;;4.03;2.47;;;20.80;99.90;;;;;;5011501;28;20492;-70
2021/08/19 09:19:19;;;;;;;4.65;3.00;;;20.80;99.90;;;;;;5027273;28;20064;-71
2021/08/19 09:22:00;;;;;;;3.60;2.30;;;21.00;99.90;;;;;;4992877;28;20129;-71
2021/08/19 09:24:29;;;;;;;3.40;2.20;;;21.00;99.90;;;;;;4989854;28;20473;-71
2021/08/19 09:27:12;;;;;;;5.05;2.55;;;21.60;99.90;;;;;;5039223;28;20064;-71
2021/08/19 09:29:40;;;;;;;5.35;2.53;;;22.00;99.90;;;;;;5009312;28;20132;-71
2021/08/19 09:32:18;;;;;;;5.07;2.30;;;22.10;99.90;;;;;;5010480;28;20058;-71
2021/08/19 09:34:49;;;;;;;5.20;2.03;;;21.90;99.90;;;;;;5008072;28;20050;-72
2021/08/19 09:37:19;;;;;;;3.60;1.87;;;21.70;99.90;;;;;;5026580;28;20118;-71
2021/08/19 09:39:53;;;;;;;4.55;2.10;;;21.30;99.90;;;;;;5008869;28;20065;-71
2021/08/19 09:42:38;;;;;;;3.30;1.85;;;21.40;99.90;;;;;;5008158;28;20100;-71
2021/08/19 09:45:41;;;;;;;5.18;1.90;;;21.40;99.90;;;;;;5008310;28;20148;-72
2021/08/19 09:48:11;;;;;;;3.40;1.80;;;21.60;99.90;;;;;;5018951;28;20049;-72
2021/08/19 09:50:39;;;;;;;3.28;1.77;;;21.60;99.90;;;;;;5008547;28;20080;-72
2021/08/19 09:53:22;;;;;;;5.50;2.10;;;21.50;99.90;;;;;;5009990;28;20081;-71
2021/08/19 09:55:52;;;;;;;3.30;1.83;;;21.20;99.90;;;;;;5007862;28;20552;-71
2021/08/19 09:58:31;;;;;;;4.88;2.17;;;21.10;99.90;;;;;;5007139;28;20481;-71
2021/08/19 10:00:59;;;;;;;4.57;2.28;;;20.80;99.90;;;;;;5001044;28;20047;-71
2021/08/19 10:03:28;;;;;;;3.90;2.40;;;20.60;99.90;;;;;;4994074;28;20049;-71
2021/08/19 10:05:55;;;;;;;4.18;1.92;;;20.40;99.90;;;;;;5028077;28;20094;-71
2021/08/19 10:08:24;;;;;;;6.20;2.67;;;20.30;99.90;;;;;;5003635;28;20128;-71
2021/08/19 10:10:55;;;;;;;4.70;2.03;;;20.20;99.90;;;;;;5009149;28;20381;-71
2021/08/19 10:13:23;;;;;;;3.03;1.77;;;20.10;99.90;;;;;;5014321;28;20108;-71
2021/08/19 10:15:52;;;;;;;5.78;2.03;;;20.20;99.90;;;;;;5009200;28;20038;-71
2021/08/19 10:18:24;;;;;;;5.18;2.25;;;20.30;99.90;;;;;;4998735;28;20536;-71
2021/08/19 10:21:04;;;;;;;;;;;20.50;99.90;;;;;;5008730;28;20173;-70
2021/08/19 10:23:50;;;;;;;3.38;2.00;;;20.40;99.90;;;;;;5037414;28;19928;-71
2021/08/19 10:26:21;;;;;;;3.55;2.10;;;20.50;99.90;;;;;;5017746;28;20095;-71
2021/08/19 10:28:56;;;;;;;3.22;2.10;;;20.80;99.90;;;;;;5019667;28;20068;-71
2021/08/19 10:31:38;;;;;;;2.67;1.70;;;21.20;99.90;;;;;;5037937;28;20290;-71
2021/08/19 10:34:10;;;;;;;4.22;2.20;;;21.50;99.90;;;;;;5014847;28;20547;-70
2021/08/19 10:36:47;;;;;;;3.42;1.80;;;21.80;99.90;;;;;;5012765;28;20034;-71
2021/08/19 10:39:23;;;;;;;3.17;1.85;;;21.70;99.90;;;;;;5007064;28;20402;-71
2021/08/19 10:41:52;;;;;;;3.45;1.85;;;21.70;99.90;;;;;;4991965;28;20047;-71
2021/08/19 10:44:35;;;;;;;3.83;1.73;;;22.00;99.90;;;;;;4996009;28;20535;-71
2021/08/19 10:47:04;;;;;;;3.70;1.65;;;22.30;99.90;;;;;;4997340;28;20137;-71
2021/08/19 10:49:38;;;;;;;6.35;1.90;;;22.20;99.90;;;;;;4991192;28;20126;-71
2021/08/19 10:52:08;;;;;;;3.63;1.70;;;22.30;99.90;;;;;;4998507;28;20463;-71
2021/08/19 10:54:50;;;;;;;3.80;1.70;;;22.20;99.90;;;;;;5009174;28;20042;-70
2021/08/19 10:57:32;;;;;;;4.77;1.90;;;22.30;99.90;;;;;;4990047;28;20475;-70
2021/08/19 11:00:06;;;;;;;3.60;1.73;;;22.20;99.90;;;;;;5008958;28;20100;-70
2021/08/19 11:02:43;;;;;;;4.80;1.80;;;22.30;99.90;;;;;;5001153;28;20057;-71
2021/08/19 11:05:26;;;;;;;4.05;1.85;;;22.10;99.90;;;;;;5007660;28;20136;-70
2021/08/19 11:07:58;;;;;;;3.20;1.65;;;22.00;99.90;;;;;;4993509;28;20497;-71
2021/08/19 11:10:28;;;;;;;;;;;21.90;99.90;;;;;;5009041;28;20141;-70
2021/08/19 11:13:11;;;;;;;4.40;1.73;;;22.00;99.90;;;;;;5038442;28;19925;-71
2021/08/19 11:15:49;;;;;;;3.42;1.83;;;21.80;99.90;;;;;;4999248;28;20540;-69
2021/08/19 11:18:43;;;;;;;3.15;1.75;;;21.40;99.90;;;;;;5022275;28;20050;-70
2021/08/19 11:21:10;;;;;;;4.68;2.05;;;21.10;99.90;;;;;;5004521;28;20479;-71
2021/08/19 11:23:41;;;;;;;2.88;1.63;;;20.80;99.90;;;;;;5008817;28;20034;-71
2021/08/19 11:26:15;;;;;;;2.88;1.40;;;20.70;99.90;;;;;;5009451;28;20133;-71
2021/08/19 11:28:45;;;;;;;2.95;1.67;;;20.60;99.90;;;;;;5009067;28;20037;-69
2021/08/19 11:31:17;;;;;;;2.75;1.63;;;20.50;99.90;;;;;;5025132;28;20104;-70
2021/08/19 11:33:45;;;;;;;4.70;1.77;;;20.50;99.90;;;;;;5024394;28;20073;-70
2021/08/19 11:36:15;;;;;;;4.07;1.60;;;20.50;99.90;;;;;;5003726;28;20046;-70
2021/08/19 11:38:43;;;;;;;3.53;1.80;;;20.60;99.90;;;;;;5003130;28;20052;-70
2021/08/19 11:41:22;;;;;;;5.45;1.98;;;20.60;99.90;;;;;;5002934;28;20047;-70
2021/08/19 11:43:50;;;;;;;3.10;1.88;;;20.80;99.90;;;;;;5036457;28;20038;-70
2021/08/19 11:46:20;;;;;;;3.15;1.77;;;20.90;99.90;;;;;;5001312;28;20053;-71
2021/08/19 11:48:51;;;;;;;7.35;1.60;;;21.00;99.90;;;;;;5002481;28;20100;-70
2021/08/19 11:51:24;;;;;;;3.30;1.70;;;21.10;99.90;;;;;;5006971;28;20042;-71
2021/08/19 11:53:53;;;;;;;2.80;1.58;;;21.30;99.90;;;;;;5008458;28;20125;-71
2021/08/19 11:56:21;;;;;;;3.08;1.45;;;21.30;99.90;;;;;;5006032;28;20057;-70
2021/08/19 11:58:52;;;;;;;2.67;1.65;;;21.30;99.90;;;;;;5007781;28;20072;-70
2021/08/19 12:01:24;;;;;;;3.83;1.73;;;21.30;99.90;;;;;;5008094;28;20133;-70
2021/08/19 12:03:52;;;;;;;;;;;21.30;99.90;;;;;;5009037;28;20041;-70
2021/08/19 12:06:19;;;;;;;3.10;1.98;;;21.30;99.90;;;;;;5009846;28;20374;-70
2021/08/19 12:08:57;;;;;;;6.35;1.80;;;21.30;99.90;;;;;;5008134;28;20042;-70
2021/08/19 12:11:30;;;;;;;2.90;1.67;;;21.40;99.90;;;;;;5011491;28;20117;-70
2021/08/19 12:14:06;;;;;;;2.95;1.88;;;21.30;99.90;;;;;;5007585;28;20060;-70
2021/08/19 12:16:35;;;;;;;3.38;1.70;;;21.20;99.90;;;;;;5006062;28;20037;-70
2021/08/19 12:19:13;;;;;;;5.78;2.38;;;21.00;99.90;;;;;;5009411;28;20468;-70
2021/08/19 12:22:02;;;;;;;2.90;1.63;;;20.90;99.90;;;;;;5013068;28;20080;-71
2021/08/19 12:24:43;;;;;;;3.50;1.88;;;21.10;99.90;;;;;;5004897;28;20565;-71
2021/08/19 12:27:19;;;;;;;3.20;1.48;;;21.60;99.90;;;;;;5016580;28;20145;-70
2021/08/19 12:29:47;;;;;;;4.18;1.80;;;22.10;99.90;;;;;;5014758;28;20121;-71
2021/08/19 12:32:28;;;;;;;2.97;1.70;;;22.30;99.90;;;;;;5016290;28;20041;-71
2021/08/19 12:35:11;;;;;;;3.72;1.60;;;22.20;99.90;;;;;;5014227;28;20046;-72
2021/08/19 12:37:52;;;;;;;3.13;1.70;;;22.20;99.90;;;;;;5014985;28;20050;-71
2021/08/19 12:40:25;;;;;;;3.72;1.63;;;22.20;99.90;;;;;;5009947;28;20054;-71
2021/08/19 12:43:06;;;;;;;3.75;1.98;;;22.20;99.90;;;;;;5006134;28;20183;-71
2021/08/19 12:45:34;;;;;;;3.13;1.60;;;22.40;99.90;;;;;;5018510;28;20046;-70
2021/08/19 12:48:07;;;;;;;2.90;1.73;;;22.40;99.90;;;;;;5016064;28;20058;-71
2021/08/19 12:50:37;;;;;;;2.90;1.70;;;22.40;99.90;;;;;;5015739;28;20046;-70
2021/08/19 12:53:08;;;;;;;4.35;2.03;;;22.40;99.90;;;;;;5018238;28;20061;-71
2021/08/19 12:55:36;;;;;;;4.47;2.00;;;22.40;99.90;;;;;;4993836;28;20052;-70
2021/08/19 12:58:04;;;;;;;3.55;1.73;;;22.50;99.90;;;;;;5026095;28;20295;-70
2021/08/19 13:00:35;;;;;;;4.95;2.20;;;22.50;99.90;;;;;;5015603;28;20119;-70